createdAt,value
2022-09-15T00:00:12.045Z,60944.69
2022-09-15T00:02:58.991Z,60944.69
2022-09-15T00:05:47.385Z,60944.69
2022-09-15T00:08:34.173Z,60944.69
2022-09-15T00:11:23.040Z,60944.69
2022-09-15T00:14:10.164Z,60944.69
2022-09-15T00:16:58.143Z,60944.69
2022-09-15T00:19:45.255Z,60944.69
2022-09-15T00:22:35.302Z,60944.69
2022-09-15T00:25:24.982Z,60944.69
2022-09-15T00:28:13.946Z,60944.69
2022-09-15T00:31:05.869Z,60944.69
2022-09-15T00:33:53.620Z,60944.69
2022-09-15T00:36:40.276Z,60944.69
2022-09-15T00:39:28.693Z,60944.69
2022-09-15T00:42:15.886Z,60944.69
2022-09-15T00:45:04.073Z,60944.69
2022-09-15T00:47:51.241Z,60944.69
2022-09-15T00:50:38.956Z,60944.69
2022-09-15T00:53:27.236Z,60944.69
2022-09-15T00:56:17.630Z,60944.69
2022-09-15T00:59:06.280Z,60944.69
2022-09-15T01:01:59.759Z,60944.69
2022-09-15T01:04:46.632Z,60944.69
2022-09-15T01:07:35.666Z,60944.69
2022-09-15T01:10:26.980Z,60944.69
2022-09-15T01:13:15.936Z,60944.69
2022-09-15T01:16:06.902Z,60944.69
2022-09-15T01:18:57.782Z,60944.69
2022-09-15T01:21:46.488Z,60944.69
2022-09-15T01:24:50.705Z,60944.69
2022-09-15T01:28:07.337Z,60944.69
2022-09-15T01:30:59.442Z,60944.69
2022-09-15T01:33:48.489Z,60944.69
2022-09-15T01:36:39.034Z,60944.69
2022-09-15T01:39:27.112Z,60944.69
2022-09-15T01:42:15.030Z,60944.69
2022-09-15T01:45:04.687Z,60944.69
2022-09-15T01:48:37.646Z,60944.69
2022-09-15T01:51:25.281Z,60944.69
2022-09-15T01:54:14.400Z,60944.69
2022-09-15T01:57:02.798Z,60944.69
2022-09-15T01:59:50.106Z,60944.69
2022-09-15T02:02:38.543Z,60944.69
2022-09-15T02:05:30.282Z,60944.69
2022-09-15T02:08:25.529Z,60944.69
2022-09-15T02:11:15.634Z,60944.69
2022-09-15T02:14:11.534Z,60944.69
2022-09-15T02:17:23.795Z,60944.69
2022-09-15T02:20:15.621Z,60944.69
2022-09-15T02:23:08.567Z,60944.69
2022-09-15T02:25:58.552Z,60944.69
2022-09-15T02:28:46.593Z,60944.69
2022-09-15T02:31:34.676Z,60944.69
2022-09-15T02:34:24.760Z,60944.69
2022-09-15T02:37:12.652Z,60944.69
2022-09-15T02:40:02.786Z,60944.69
2022-09-15T02:42:53.669Z,60944.69
2022-09-15T02:45:40.931Z,60944.69
2022-09-15T02:48:27.882Z,60944.69
2022-09-15T02:51:15.137Z,60944.69
2022-09-15T02:54:01.871Z,60944.69
2022-09-15T02:56:49.848Z,60944.69
2022-09-15T02:59:50.527Z,60944.69
2022-09-15T03:02:37.170Z,60944.69
2022-09-15T03:05:25.533Z,60944.69
2022-09-15T03:08:12.358Z,60944.69
2022-09-15T03:10:59.128Z,60944.69
2022-09-15T03:13:47.664Z,60944.69
2022-09-15T03:16:35.671Z,60944.69
2022-09-15T03:19:22.591Z,60944.69
2022-09-15T03:22:10.449Z,60944.69
2022-09-15T03:24:57.276Z,60944.69
2022-09-15T03:27:44.210Z,60944.69
2022-09-15T03:30:32.572Z,60944.69
2022-09-15T03:33:19.714Z,60944.69
2022-09-15T03:36:07.667Z,60944.69
2022-09-15T03:38:56.799Z,60944.69
2022-09-15T03:41:43.820Z,60944.69
2022-09-15T03:44:30.753Z,60944.69
2022-09-15T03:47:19.189Z,60944.69
2022-09-15T03:50:06.863Z,60944.69
2022-09-15T03:52:58.162Z,60944.69
2022-09-15T03:55:46.736Z,60944.69
2022-09-15T03:58:33.658Z,60944.69
2022-09-15T04:01:20.839Z,60944.69
2022-09-15T04:04:09.182Z,60944.69
2022-09-15T04:06:55.937Z,60944.69
2022-09-15T04:09:42.705Z,60944.69
2022-09-15T04:12:32.169Z,60944.69
2022-09-15T04:15:19.245Z,60944.69
2022-09-15T04:18:06.673Z,60944.69
2022-09-15T04:20:54.905Z,60944.69
2022-09-15T04:23:42.536Z,60944.69
2022-09-15T04:26:33.041Z,60944.69
2022-09-15T04:29:19.770Z,60944.69
2022-09-15T05:00:04.796Z,81124.19
2022-09-15T05:02:51.712Z,81124.19
2022-09-15T08:19:45.045Z,81124.19
2022-09-15T08:33:49.535Z,81124.19
2022-09-15T08:36:36.144Z,81124.19
2022-09-15T08:39:23.216Z,81124.19
2022-09-15T08:42:15.704Z,81124.19
2022-09-15T08:45:04.270Z,81124.19
2022-09-15T08:50:45.586Z,81124.19
2022-09-15T08:53:36.886Z,81124.19
2022-09-15T08:56:23.879Z,81124.19
2022-09-15T08:59:13.477Z,81124.19
2022-09-15T09:05:17.252Z,81124.19
2022-09-15T09:28:32.171Z,81124.19
2022-09-15T09:31:20.703Z,81124.19
2022-09-15T09:34:16.074Z,81124.19
2022-09-15T09:37:10.456Z,81124.19
2022-09-15T09:42:50.842Z,81124.19
2022-09-15T09:45:37.657Z,81124.19
2022-09-15T09:48:26.355Z,81124.19
2022-09-15T09:51:33.816Z,81124.19
2022-09-15T19:07:02.061Z,98955.03
2022-09-15T19:10:07.758Z,98958.03
2022-09-15T19:13:14.234Z,98959.28
2022-09-15T19:16:22.689Z,98964.63
2022-09-15T19:19:28.440Z,98968.34
2022-09-15T19:22:36.273Z,98961.38
2022-09-15T19:25:41.846Z,98956.47
2022-09-15T19:28:50.862Z,98954.06
2022-09-15T19:31:56.058Z,98953.13
2022-09-15T19:35:01.232Z,98948.41
2022-09-15T19:38:09.892Z,98946.31
2022-09-15T19:41:16.644Z,98944.66
2022-09-15T19:44:28.677Z,98945.91
2022-09-15T19:47:33.624Z,98947.53
2022-09-15T19:50:39.771Z,98954.53
2022-09-15T19:53:56.074Z,98946.50
2022-09-15T19:57:16.882Z,98944.66
2022-09-15T20:07:59.243Z,98941.84
2022-09-15T20:11:07.357Z,98943.34
2022-09-15T20:14:12.406Z,98932.47
2022-09-15T20:17:17.364Z,98924.06
2022-09-15T20:20:22.825Z,98928.47
2022-09-15T20:23:28.736Z,98922.34
2022-09-15T20:26:36.223Z,98925.09
2022-09-15T20:29:41.804Z,98916.06
2022-09-15T20:32:46.702Z,98925.00
2022-09-15T20:35:51.936Z,98922.03
2022-09-15T20:38:59.034Z,98922.66
2022-09-15T20:42:05.795Z,98919.19
2022-09-15T20:45:11.594Z,98916.09
2022-09-15T20:48:16.521Z,98911.13
2022-09-15T20:51:22.815Z,98907.72
2022-09-15T20:54:27.895Z,98909.97
2022-09-15T20:57:34.683Z,98915.59
2022-09-15T21:00:39.958Z,98907.56
2022-09-15T21:03:45.696Z,98913.16
2022-09-15T21:06:50.763Z,98906.72
2022-09-15T21:09:56.617Z,98910.00
2022-09-15T21:13:03.417Z,98914.91
2022-09-15T21:16:09.905Z,98903.28
2022-09-15T21:19:15.372Z,98897.09
2022-09-15T21:22:43.282Z,98892.56
2022-09-15T21:26:02.125Z,98886.38
2022-09-15T21:29:22.234Z,98885.66
2022-09-15T21:32:32.225Z,98891.13
2022-09-15T21:39:41.869Z,98883.44
2022-09-15T21:43:20.704Z,98873.97
2022-09-15T21:46:43.088Z,98864.09
2022-09-15T21:49:58.904Z,98867.44
2022-09-15T21:53:04.849Z,98864.28
2022-09-15T21:56:13.854Z,98867.31
2022-09-15T21:59:20.670Z,98864.38
2022-09-15T22:02:41.447Z,98857.72
2022-09-15T22:05:49.948Z,98857.72
2022-09-15T22:09:11.238Z,98861.47
2022-09-15T22:12:16.986Z,98880.84
2022-09-15T22:15:31.862Z,98864.84
2022-09-15T22:18:53.127Z,98864.28
2022-09-15T22:22:00.116Z,98857.28
2022-09-15T22:25:06.052Z,98862.16
2022-09-15T22:28:29.921Z,98853.56
2022-09-15T22:31:59.764Z,98852.47
2022-09-15T22:35:05.419Z,98848.75
2022-09-15T22:38:28.859Z,98857.84
2022-09-15T22:42:14.848Z,98849.78
2022-09-15T22:45:27.290Z,98863.09
2022-09-15T22:49:03.480Z,98866.94
2022-09-15T22:56:15.188Z,98872.97
2022-09-15T22:59:53.585Z,98850.75
2022-09-15T23:03:19.510Z,98836.41
2022-09-15T23:06:32.422Z,98829.41
2022-09-15T23:09:44.470Z,98825.22
2022-09-15T23:12:49.961Z,98816.47
2022-09-15T23:15:55.297Z,98813.97
2022-09-15T23:19:05.406Z,98812.69
2022-09-15T23:22:14.516Z,98819.22
2022-09-15T23:25:29.272Z,98809.66
2022-09-15T23:28:43.691Z,98798.72
2022-09-15T23:31:54.926Z,98788.22
2022-09-15T23:35:13.273Z,98785.53
2022-09-15T23:38:19.648Z,98790.44
2022-09-15T23:41:32.542Z,98793.81
2022-09-15T23:44:40.929Z,98809.44
2022-09-15T23:47:54.215Z,98800.47
2022-09-15T23:51:01.712Z,98805.94
2022-09-15T23:54:13.851Z,98805.72
2022-09-15T23:57:20.939Z,98802.03
